MAHA02X WMKK-WMKM
Flight info
| Callsign | MAHA02X |
|---|---|
| Flight time | 0h 41m |
| Altitude | 9000 |
| Route | SEP341/32R VKL A464 DUMOK DUMOK2S |
| Aircraft | DA42/L-SBDGRY/S |
Departure
| Time | 2026-05-01 07:23 |
|---|---|
| Airport | Kuala Lumpur International Airport (WMKK) |
Arrival
| Time | 2026-05-01 08:04 |
|---|---|
| Airport | Malacca International Airport (WMKM) |
| Time | Latitude | Longitude | Altitude | Speed | Heading |
|---|---|---|---|---|---|
| 2026-05-01 07:23 | 2.77228 | 101.70686 | 727 ft | 96 kts | 329° |
| 2026-05-01 07:23 | 2.78384 | 101.70817 | 1368 ft | 93 kts | 57° |
| 2026-05-01 07:24 | 2.78499 | 101.71420 | 1688 ft | 93 kts | 104° |
| 2026-05-01 07:24 | 2.78062 | 101.71890 | 1992 ft | 98 kts | 155° |
| 2026-05-01 07:24 | 2.77409 | 101.72086 | 2311 ft | 100 kts | 160° |
| 2026-05-01 07:24 | 2.76761 | 101.72318 | 2629 ft | 99 kts | 149° |
| 2026-05-01 07:25 | 2.76137 | 101.72520 | 2946 ft | 101 kts | 159° |
| 2026-05-01 07:25 | 2.75447 | 101.72703 | 3258 ft | 102 kts | 162° |
| 2026-05-01 07:25 | 2.74764 | 101.72868 | 3576 ft | 102 kts | 162° |
| 2026-05-01 07:25 | 2.74079 | 101.73065 | 3896 ft | 101 kts | 159° |
| 2026-05-01 07:26 | 2.73406 | 101.73271 | 4230 ft | 100 kts | 156° |
| 2026-05-01 07:26 | 2.72786 | 101.73579 | 4526 ft | 99 kts | 143° |
| 2026-05-01 07:26 | 2.72217 | 101.73940 | 4870 ft | 96 kts | 143° |
| 2026-05-01 07:26 | 2.71642 | 101.74300 | 5161 ft | 100 kts | 142° |
| 2026-05-01 07:27 | 2.71049 | 101.74651 | 5502 ft | 97 kts | 143° |
| 2026-05-01 07:27 | 2.70489 | 101.75021 | 5828 ft | 96 kts | 140° |
| 2026-05-01 07:27 | 2.69927 | 101.75385 | 6125 ft | 98 kts | 141° |
| 2026-05-01 07:27 | 2.69344 | 101.75741 | 6456 ft | 97 kts | 143° |
| 2026-05-01 07:28 | 2.68753 | 101.76093 | 6748 ft | 100 kts | 139° |
| 2026-05-01 07:28 | 2.68191 | 101.76489 | 7059 ft | 100 kts | 138° |
| 2026-05-01 07:28 | 2.67594 | 101.76857 | 7374 ft | 102 kts | 143° |
| 2026-05-01 07:28 | 2.66995 | 101.77226 | 7687 ft | 102 kts | 141° |
| 2026-05-01 07:29 | 2.66398 | 101.77612 | 7973 ft | 102 kts | 140° |
| 2026-05-01 07:29 | 2.65785 | 101.77988 | 8208 ft | 103 kts | 142° |
| 2026-05-01 07:29 | 2.65184 | 101.78379 | 8451 ft | 103 kts | 140° |
| 2026-05-01 07:29 | 2.64572 | 101.78760 | 8696 ft | 104 kts | 145° |
| 2026-05-01 07:30 | 2.63949 | 101.79116 | 8953 ft | 103 kts | 142° |
| 2026-05-01 07:30 | 2.63297 | 101.79505 | 9029 ft | 118 kts | 141° |
| 2026-05-01 07:30 | 2.62550 | 101.79989 | 9000 ft | 136 kts | 141° |
| 2026-05-01 07:30 | 2.61727 | 101.80527 | 9024 ft | 145 kts | 142° |
| 2026-05-01 07:31 | 2.60836 | 101.81084 | 9007 ft | 152 kts | 143° |
| 2026-05-01 07:31 | 2.58074 | 101.82792 | 9064 ft | 158 kts | 145° |
| 2026-05-01 07:32 | 2.56166 | 101.83977 | 9018 ft | 163 kts | 143° |
| 2026-05-01 07:32 | 2.55210 | 101.84569 | 9015 ft | 162 kts | 143° |
| 2026-05-01 07:33 | 2.53282 | 101.85752 | 9023 ft | 162 kts | 144° |
| 2026-05-01 07:33 | 2.52296 | 101.86337 | 9008 ft | 164 kts | 145° |
| 2026-05-01 07:33 | 2.50365 | 101.87521 | 9000 ft | 163 kts | 144° |
| 2026-05-01 07:34 | 2.49388 | 101.88109 | 8997 ft | 162 kts | 142° |
| 2026-05-01 07:34 | 2.47455 | 101.89321 | 8973 ft | 163 kts | 144° |
| 2026-05-01 07:34 | 2.46468 | 101.89880 | 8973 ft | 163 kts | 144° |
| 2026-05-01 07:35 | 2.45496 | 101.90495 | 8971 ft | 163 kts | 143° |
| 2026-05-01 07:35 | 2.44535 | 101.91075 | 8985 ft | 162 kts | 145° |
| 2026-05-01 07:35 | 2.43576 | 101.91698 | 8983 ft | 162 kts | 142° |
| 2026-05-01 07:35 | 2.42624 | 101.92299 | 8984 ft | 163 kts | 143° |
| 2026-05-01 07:36 | 2.41641 | 101.92894 | 8973 ft | 163 kts | 144° |
| 2026-05-01 07:36 | 2.40725 | 101.93546 | 8974 ft | 162 kts | 139° |
| 2026-05-01 07:36 | 2.39784 | 101.94192 | 8973 ft | 162 kts | 142° |
| 2026-05-01 07:36 | 2.38837 | 101.94791 | 8976 ft | 162 kts | 144° |
| 2026-05-01 07:37 | 2.36914 | 101.95993 | 8997 ft | 161 kts | 143° |
| 2026-05-01 07:37 | 2.35962 | 101.96578 | 9005 ft | 161 kts | 144° |
| 2026-05-01 07:37 | 2.34994 | 101.97166 | 8999 ft | 162 kts | 143° |
| 2026-05-01 07:38 | 2.34024 | 101.97759 | 8990 ft | 163 kts | 144° |
| 2026-05-01 07:38 | 2.33051 | 101.98329 | 8992 ft | 162 kts | 146° |
| 2026-05-01 07:38 | 2.31140 | 101.99528 | 9000 ft | 159 kts | 134° |
| 2026-05-01 07:39 | 2.30600 | 102.00440 | 8995 ft | 154 kts | 104° |
| 2026-05-01 07:39 | 2.30345 | 102.01474 | 9033 ft | 152 kts | 102° |
| 2026-05-01 07:39 | 2.29795 | 102.03535 | 9021 ft | 153 kts | 102° |
| 2026-05-01 07:40 | 2.29484 | 102.04557 | 8998 ft | 155 kts | 105° |
| 2026-05-01 07:40 | 2.29289 | 102.05623 | 8961 ft | 155 kts | 96° |
| 2026-05-01 07:40 | 2.29114 | 102.06679 | 8994 ft | 153 kts | 98° |
| 2026-05-01 07:40 | 2.28922 | 102.07701 | 9034 ft | 151 kts | 100° |
| 2026-05-01 07:41 | 2.28681 | 102.08742 | 9011 ft | 152 kts | 100° |
| 2026-05-01 07:41 | 2.28438 | 102.09768 | 8987 ft | 153 kts | 101° |
| 2026-05-01 07:41 | 2.27977 | 102.11841 | 9008 ft | 151 kts | 98° |
| 2026-05-01 07:42 | 2.27773 | 102.12879 | 9007 ft | 152 kts | 100° |
| 2026-05-01 07:42 | 2.27584 | 102.13926 | 8992 ft | 153 kts | 99° |
| 2026-05-01 07:42 | 2.27389 | 102.14960 | 9003 ft | 152 kts | 98° |
| 2026-05-01 07:42 | 2.27257 | 102.16013 | 9006 ft | 152 kts | 96° |
| 2026-05-01 07:43 | 2.27130 | 102.17059 | 9001 ft | 151 kts | 96° |
| 2026-05-01 07:43 | 2.26972 | 102.18104 | 9006 ft | 151 kts | 98° |
| 2026-05-01 07:43 | 2.26577 | 102.20149 | 9023 ft | 151 kts | 100° |
| 2026-05-01 07:44 | 2.26108 | 102.22222 | 8981 ft | 154 kts | 110° |
| 2026-05-01 07:44 | 2.24252 | 102.23338 | 8971 ft | 165 kts | 165° |
| 2026-05-01 07:45 | 2.23124 | 102.23555 | 9018 ft | 164 kts | 164° |
| 2026-05-01 07:45 | 2.21997 | 102.23770 | 8993 ft | 166 kts | 163° |
| 2026-05-01 07:45 | 2.20850 | 102.23978 | 9012 ft | 165 kts | 165° |
| 2026-05-01 07:45 | 2.19696 | 102.24065 | 9007 ft | 167 kts | 171° |
| 2026-05-01 07:46 | 2.18594 | 102.24330 | 9031 ft | 161 kts | 159° |
| 2026-05-01 07:46 | 2.17499 | 102.24620 | 8853 ft | 164 kts | 161° |
| 2026-05-01 07:46 | 2.15240 | 102.24993 | 8659 ft | 164 kts | 171° |
| 2026-05-01 07:47 | 2.14113 | 102.25072 | 8452 ft | 162 kts | 170° |
| 2026-05-01 07:47 | 2.12980 | 102.25212 | 8125 ft | 166 kts | 169° |
| 2026-05-01 07:47 | 2.11827 | 102.25333 | 7847 ft | 164 kts | 170° |
| 2026-05-01 07:47 | 2.10685 | 102.25382 | 7588 ft | 162 kts | 175° |
| 2026-05-01 07:48 | 2.08715 | 102.24595 | 6804 ft | 167 kts | 246° |
| 2026-05-01 07:48 | 2.08600 | 102.23476 | 6468 ft | 162 kts | 272° |
| 2026-05-01 07:48 | 2.08571 | 102.22359 | 6108 ft | 159 kts | 266° |
| 2026-05-01 07:49 | 2.08599 | 102.21275 | 5766 ft | 157 kts | 276° |
| 2026-05-01 07:49 | 2.08644 | 102.19147 | 5149 ft | 147 kts | 277° |
| 2026-05-01 07:49 | 2.08891 | 102.18158 | 4884 ft | 144 kts | 288° |
| 2026-05-01 07:50 | 2.09118 | 102.17226 | 4892 ft | 136 kts | 285° |
| 2026-05-01 07:50 | 2.09641 | 102.15511 | 4801 ft | 124 kts | 303° |
| 2026-05-01 07:50 | 2.10224 | 102.14875 | 4652 ft | 122 kts | 339° |
| 2026-05-01 07:51 | 2.11021 | 102.14921 | 4390 ft | 119 kts | 35° |
| 2026-05-01 07:51 | 2.11637 | 102.15440 | 4130 ft | 116 kts | 46° |
| 2026-05-01 07:51 | 2.12205 | 102.16030 | 3837 ft | 115 kts | 48° |
| 2026-05-01 07:52 | 2.13218 | 102.17220 | 3331 ft | 110 kts | 53° |
| 2026-05-01 07:52 | 2.13696 | 102.17807 | 3055 ft | 110 kts | 46° |
| 2026-05-01 07:52 | 2.14347 | 102.18227 | 2802 ft | 117 kts | 28° |
| 2026-05-01 07:53 | 2.15819 | 102.19037 | 2254 ft | 121 kts | 33° |
| 2026-05-01 07:53 | 2.16527 | 102.19459 | 2047 ft | 119 kts | 33° |
| 2026-05-01 07:53 | 2.17263 | 102.19917 | 1877 ft | 126 kts | 35° |
| 2026-05-01 07:53 | 2.17985 | 102.20404 | 1687 ft | 123 kts | 33° |
| 2026-05-01 07:54 | 2.19515 | 102.21182 | 1347 ft | 125 kts | 29° |
| 2026-05-01 07:55 | 2.21711 | 102.22470 | 947 ft | 119 kts | 38° |
| 2026-05-01 07:55 | 2.22952 | 102.23202 | 672 ft | 96 kts | 31° |
| 2026-05-01 07:56 | 2.24560 | 102.24114 | 342 ft | 84 kts | 33° |
| 2026-05-01 07:56 | 2.25601 | 102.24725 | 100 ft | 87 kts | 34° |
| 2026-05-01 07:57 | 2.26096 | 102.25016 | 29 ft | 70 kts | 30° |
| 2026-05-01 07:57 | 2.27048 | 102.25573 | 303 ft | 88 kts | 35° |
| 2026-05-01 07:58 | 2.28360 | 102.25625 | 623 ft | 127 kts | 311° |
| 2026-05-01 07:58 | 2.27841 | 102.24159 | 1052 ft | 129 kts | 206° |
| 2026-05-01 07:59 | 2.26196 | 102.23209 | 1014 ft | 142 kts | 210° |
| 2026-05-01 07:59 | 2.24490 | 102.22446 | 901 ft | 114 kts | 165° |
| 2026-05-01 08:00 | 2.24962 | 102.24303 | 264 ft | 86 kts | 41° |
| 2026-05-01 08:01 | 2.26417 | 102.25196 | 36 ft | 77 kts | 33° |
| 2026-05-01 08:01 | 2.26944 | 102.25507 | 182 ft | 89 kts | 33° |
| 2026-05-01 08:01 | 2.27565 | 102.25482 | 349 ft | 108 kts | 318° |
| 2026-05-01 08:02 | 2.27179 | 102.23994 | 587 ft | 140 kts | 212° |
| 2026-05-01 08:02 | 2.26314 | 102.23467 | 638 ft | 146 kts | 210° |
| 2026-05-01 08:03 | 2.24610 | 102.22742 | 725 ft | 109 kts | 161° |
| 2026-05-01 08:03 | 2.24164 | 102.23246 | 561 ft | 95 kts | 98° |
| 2026-05-01 08:03 | 2.24875 | 102.24239 | 272 ft | 86 kts | 42° |
| 2026-05-01 08:04 | 2.25870 | 102.24882 | 46 ft | 84 kts | 33° |
| 2026-05-01 08:04 | 2.26613 | 102.25312 | 38 ft | 40 kts | 30° |
| 2026-05-01 08:05 | 2.26978 | 102.25520 | 36 ft | 22 kts | 31° |
| 2026-05-01 08:05 | 2.27060 | 102.25532 | 35 ft | 11 kts | 298° |
| 2026-05-01 08:05 | 2.27108 | 102.25449 | 34 ft | 14 kts | 298° |